sensor_id;sensor_type;location;lat;lon;timestamp;pressure;altitude;pressure_sealevel;temperature;humidity
41234;BME280;26968;42.686;23.352;2023-01-29T00:02:17;95323.22;;;-1.30;85.93
41234;BME280;26968;42.686;23.352;2023-01-29T00:04:43;95289.94;;;-1.48;86.05
41234;BME280;26968;42.686;23.352;2023-01-29T00:07:08;95342.66;;;-1.13;86.10
41234;BME280;26968;42.686;23.352;2023-01-29T00:09:34;95343.25;;;-1.18;85.90
41234;BME280;26968;42.686;23.352;2023-01-29T00:11:59;95321.97;;;-1.34;86.61
41234;BME280;26968;42.686;23.352;2023-01-29T00:14:25;95329.00;;;-1.22;85.97
41234;BME280;26968;42.686;23.352;2023-01-29T00:16:52;95266.44;;;-1.68;86.27
41234;BME280;26968;42.686;23.352;2023-01-29T00:19:17;95364.69;;;-1.09;85.94
41234;BME280;26968;42.686;23.352;2023-01-29T00:21:43;95235.81;;;-1.79;86.10
41234;BME280;26968;42.686;23.352;2023-01-29T00:24:09;95290.09;;;-1.56;85.94
41234;BME280;26968;42.686;23.352;2023-01-29T00:26:35;95361.09;;;-1.08;86.41
41234;BME280;26968;42.686;23.352;2023-01-29T00:29:03;95335.41;;;-1.31;86.43
41234;BME280;26968;42.686;23.352;2023-01-29T00:31:28;95359.47;;;-1.15;86.65
41234;BME280;26968;42.686;23.352;2023-01-29T00:33:54;95334.19;;;-1.35;86.47
41234;BME280;26968;42.686;23.352;2023-01-29T00:36:20;95344.22;;;-1.32;86.65
41234;BME280;26968;42.686;23.352;2023-01-29T00:38:46;95369.66;;;-1.14;86.73
41234;BME280;26968;42.686;23.352;2023-01-29T00:41:19;95336.78;;;-1.28;86.78
41234;BME280;26968;42.686;23.352;2023-01-29T00:44:05;95371.91;;;-1.04;86.59
41234;BME280;26968;42.686;23.352;2023-01-29T00:46:49;95243.97;;;-1.95;86.75
41234;BME280;26968;42.686;23.352;2023-01-29T00:49:15;95259.06;;;-1.71;86.72
41234;BME280;26968;42.686;23.352;2023-01-29T00:51:40;95294.69;;;-1.58;86.99
41234;BME280;26968;42.686;23.352;2023-01-29T00:54:06;95284.88;;;-1.63;86.74
41234;BME280;26968;42.686;23.352;2023-01-29T00:56:34;95241.38;;;-1.88;87.03
41234;BME280;26968;42.686;23.352;2023-01-29T00:58:59;95358.47;;;-1.14;87.29
41234;BME280;26968;42.686;23.352;2023-01-29T01:01:25;95313.72;;;-1.51;87.32
41234;BME280;26968;42.686;23.352;2023-01-29T01:04:10;95367.25;;;-1.22;87.43
41234;BME280;26968;42.686;23.352;2023-01-29T01:06:39;95363.25;;;-1.25;87.63
41234;BME280;26968;42.686;23.352;2023-01-29T01:09:05;95358.22;;;-1.26;87.86
41234;BME280;26968;42.686;23.352;2023-01-29T01:11:49;95282.25;;;-1.76;87.78
41234;BME280;26968;42.686;23.352;2023-01-29T01:14:16;95362.06;;;-1.22;87.87
41234;BME280;26968;42.686;23.352;2023-01-29T01:16:43;95368.66;;;-1.20;87.63
41234;BME280;26968;42.686;23.352;2023-01-29T01:19:09;95356.44;;;-1.26;87.06
41234;BME280;26968;42.686;23.352;2023-01-29T01:21:35;95236.34;;;-2.03;87.34
41234;BME280;26968;42.686;23.352;2023-01-29T01:24:00;95299.88;;;-1.58;87.48
41234;BME280;26968;42.686;23.352;2023-01-29T01:26:26;95348.63;;;-1.26;87.31
41234;BME280;26968;42.686;23.352;2023-01-29T01:28:51;95255.81;;;-1.86;87.22
41234;BME280;26968;42.686;23.352;2023-01-29T01:31:17;95308.84;;;-1.74;87.75
41234;BME280;26968;42.686;23.352;2023-01-29T01:33:43;95365.81;;;-1.38;87.60
41234;BME280;26968;42.686;23.352;2023-01-29T01:36:08;95352.59;;;-1.36;87.64
41234;BME280;26968;42.686;23.352;2023-01-29T01:38:35;95300.63;;;-1.77;87.73
41234;BME280;26968;42.686;23.352;2023-01-29T01:41:08;95259.50;;;-2.08;88.00
41234;BME280;26968;42.686;23.352;2023-01-29T01:43:59;95357.19;;;-1.38;88.08
41234;BME280;26968;42.686;23.352;2023-01-29T01:46:31;95281.81;;;-1.79;88.04
41234;BME280;26968;42.686;23.352;2023-01-29T01:49:10;95324.94;;;-1.50;88.27
41234;BME280;26968;42.686;23.352;2023-01-29T01:51:44;95338.34;;;-1.47;88.42
41234;BME280;26968;42.686;23.352;2023-01-29T01:54:17;95352.38;;;-1.41;87.82
41234;BME280;26968;42.686;23.352;2023-01-29T01:56:48;95289.97;;;-1.89;88.51
41234;BME280;26968;42.686;23.352;2023-01-29T01:59:17;95260.16;;;-2.00;88.23
41234;BME280;26968;42.686;23.352;2023-01-29T02:01:46;95309.44;;;-1.78;87.76
41234;BME280;26968;42.686;23.352;2023-01-29T02:04:18;95381.19;;;-1.43;88.05
41234;BME280;26968;42.686;23.352;2023-01-29T02:07:07;95312.06;;;-1.72;88.67
41234;BME280;26968;42.686;23.352;2023-01-29T02:10:14;95370.44;;;-1.27;88.74
41234;BME280;26968;42.686;23.352;2023-01-29T02:12:41;95351.19;;;-1.39;88.59
41234;BME280;26968;42.686;23.352;2023-01-29T02:15:08;95296.25;;;-1.70;88.77
41234;BME280;26968;42.686;23.352;2023-01-29T02:17:34;95368.44;;;-1.25;88.81
41234;BME280;26968;42.686;23.352;2023-01-29T02:25:54;95365.50;;;-1.08;88.54
41234;BME280;26968;42.686;23.352;2023-01-29T02:28:29;95366.84;;;-1.19;88.79
41234;BME280;26968;42.686;23.352;2023-01-29T02:32:16;95377.25;;;-1.26;88.98
41234;BME280;26968;42.686;23.352;2023-01-29T02:34:45;95342.94;;;-1.49;88.85
41234;BME280;26968;42.686;23.352;2023-01-29T02:37:53;95378.88;;;-1.18;89.53
41234;BME280;26968;42.686;23.352;2023-01-29T02:40:42;95357.19;;;-1.38;89.45
41234;BME280;26968;42.686;23.352;2023-01-29T02:46:10;95391.28;;;-1.20;88.77
41234;BME280;26968;42.686;23.352;2023-01-29T02:51:18;95385.84;;;-1.25;89.57
41234;BME280;26968;42.686;23.352;2023-01-29T02:54:16;95391.72;;;-1.10;89.59
41234;BME280;26968;42.686;23.352;2023-01-29T02:56:54;95387.13;;;-1.08;89.18
41234;BME280;26968;42.686;23.352;2023-01-29T02:59:31;95252.69;;;-2.16;88.55
41234;BME280;26968;42.686;23.352;2023-01-29T03:02:12;95374.38;;;-1.37;89.52
41234;BME280;26968;42.686;23.352;2023-01-29T03:04:49;95388.47;;;-1.25;89.91
41234;BME280;26968;42.686;23.352;2023-01-29T03:07:21;95312.50;;;-1.62;90.12
41234;BME280;26968;42.686;23.352;2023-01-29T03:10:19;95365.66;;;-1.23;89.53
41234;BME280;26968;42.686;23.352;2023-01-29T03:12:50;95326.13;;;-1.53;89.56
41234;BME280;26968;42.686;23.352;2023-01-29T03:15:23;95383.91;;;-1.10;89.49
41234;BME280;26968;42.686;23.352;2023-01-29T03:18:23;95391.69;;;-1.23;89.47
41234;BME280;26968;42.686;23.352;2023-01-29T03:20:59;95297.59;;;-1.81;89.78
41234;BME280;26968;42.686;23.352;2023-01-29T03:23:30;95381.06;;;-1.22;90.12
41234;BME280;26968;42.686;23.352;2023-01-29T03:26:19;95396.75;;;-1.02;89.77
41234;BME280;26968;42.686;23.352;2023-01-29T03:29:05;95366.22;;;-1.28;89.59
41234;BME280;26968;42.686;23.352;2023-01-29T03:31:52;95395.50;;;-1.06;89.17
41234;BME280;26968;42.686;23.352;2023-01-29T03:34:56;95384.47;;;-1.21;88.92
41234;BME280;26968;42.686;23.352;2023-01-29T03:37:44;95333.97;;;-1.46;88.94
41234;BME280;26968;42.686;23.352;2023-01-29T03:40:10;95336.94;;;-1.43;89.11
41234;BME280;26968;42.686;23.352;2023-01-29T03:43:02;95389.28;;;-1.11;88.34
41234;BME280;26968;42.686;23.352;2023-01-29T03:45:33;95392.34;;;-0.95;88.50
41234;BME280;26968;42.686;23.352;2023-01-29T03:50:57;95346.00;;;-1.32;88.60
41234;BME280;26968;42.686;23.352;2023-01-29T04:02:02;95366.41;;;-1.36;89.24
41234;BME280;26968;42.686;23.352;2023-01-29T04:04:38;95355.56;;;-1.46;89.86
41234;BME280;26968;42.686;23.352;2023-01-29T04:07:15;95395.09;;;-1.16;89.68
41234;BME280;26968;42.686;23.352;2023-01-29T04:09:48;95399.09;;;-1.13;89.60
41234;BME280;26968;42.686;23.352;2023-01-29T04:12:20;95403.38;;;-0.99;90.10
41234;BME280;26968;42.686;23.352;2023-01-29T04:14:49;95293.31;;;-1.61;89.46
41234;BME280;26968;42.686;23.352;2023-01-29T04:17:26;95321.91;;;-1.61;89.07
41234;BME280;26968;42.686;23.352;2023-01-29T04:19:54;95404.09;;;-1.12;89.53
41234;BME280;26968;42.686;23.352;2023-01-29T04:22:34;95327.69;;;-1.59;89.78
41234;BME280;26968;42.686;23.352;2023-01-29T04:25:05;95381.28;;;-1.23;89.63
41234;BME280;26968;42.686;23.352;2023-01-29T04:27:56;95404.28;;;-1.20;89.68
41234;BME280;26968;42.686;23.352;2023-01-29T04:33:34;95422.13;;;-1.10;89.80
41234;BME280;26968;42.686;23.352;2023-01-29T04:36:27;95367.94;;;-1.54;89.01
41234;BME280;26968;42.686;23.352;2023-01-29T04:47:22;95373.72;;;-1.52;88.50
41234;BME280;26968;42.686;23.352;2023-01-29T04:50:16;95415.91;;;-1.23;88.47
41234;BME280;26968;42.686;23.352;2023-01-29T04:55:23;95411.44;;;-1.35;88.70
41234;BME280;26968;42.686;23.352;2023-01-29T04:58:11;95421.91;;;-1.22;88.97
41234;BME280;26968;42.686;23.352;2023-01-29T05:00:41;95428.09;;;-1.30;88.55
41234;BME280;26968;42.686;23.352;2023-01-29T05:03:08;95423.72;;;-1.23;88.65
41234;BME280;26968;42.686;23.352;2023-01-29T05:05:38;95428.50;;;-1.20;88.76
41234;BME280;26968;42.686;23.352;2023-01-29T05:08:06;95424.50;;;-1.22;89.09
41234;BME280;26968;42.686;23.352;2023-01-29T05:10:32;95375.09;;;-1.63;88.50
41234;BME280;26968;42.686;23.352;2023-01-29T05:13:00;95400.59;;;-1.45;89.23
41234;BME280;26968;42.686;23.352;2023-01-29T05:15:38;95423.47;;;-1.28;89.51
41234;BME280;26968;42.686;23.352;2023-01-29T05:18:05;95377.09;;;-1.65;88.88
41234;BME280;26968;42.686;23.352;2023-01-29T05:20:35;95429.28;;;-1.26;89.00
41234;BME280;26968;42.686;23.352;2023-01-29T05:23:01;95348.44;;;-1.72;89.38
41234;BME280;26968;42.686;23.352;2023-01-29T05:25:30;95335.59;;;-1.86;89.23
41234;BME280;26968;42.686;23.352;2023-01-29T05:27:56;95418.41;;;-1.42;89.10
41234;BME280;26968;42.686;23.352;2023-01-29T05:30:41;95408.22;;;-1.37;88.86
41234;BME280;26968;42.686;23.352;2023-01-29T05:33:16;95435.53;;;-1.13;88.96
41234;BME280;26968;42.686;23.352;2023-01-29T05:35:42;95441.38;;;-1.05;88.84
41234;BME280;26968;42.686;23.352;2023-01-29T05:38:08;95397.75;;;-1.50;87.97
41234;BME280;26968;42.686;23.352;2023-01-29T05:40:33;95441.78;;;-1.08;87.76
41234;BME280;26968;42.686;23.352;2023-01-29T05:43:00;95289.38;;;-1.91;87.50
41234;BME280;26968;42.686;23.352;2023-01-29T05:45:25;95448.53;;;-1.20;88.17
41234;BME280;26968;42.686;23.352;2023-01-29T05:47:57;95301.13;;;-2.02;88.27
41234;BME280;26968;42.686;23.352;2023-01-29T05:50:24;95446.56;;;-1.11;88.73
41234;BME280;26968;42.686;23.352;2023-01-29T05:52:55;95375.13;;;-1.57;88.18
41234;BME280;26968;42.686;23.352;2023-01-29T05:55:21;95365.25;;;-1.68;88.67
41234;BME280;26968;42.686;23.352;2023-01-29T05:57:46;95373.25;;;-1.76;89.13
41234;BME280;26968;42.686;23.352;2023-01-29T06:00:12;95422.38;;;-1.53;89.05
41234;BME280;26968;42.686;23.352;2023-01-29T06:02:38;95388.31;;;-1.58;88.76
41234;BME280;26968;42.686;23.352;2023-01-29T06:05:04;95371.81;;;-1.78;88.89
41234;BME280;26968;42.686;23.352;2023-01-29T06:07:29;95373.25;;;-1.76;88.92
41234;BME280;26968;42.686;23.352;2023-01-29T06:09:55;95457.09;;;-1.26;89.17
41234;BME280;26968;42.686;23.352;2023-01-29T06:12:20;95388.06;;;-1.70;89.46
41234;BME280;26968;42.686;23.352;2023-01-29T06:14:46;95418.81;;;-1.45;89.73
41234;BME280;26968;42.686;23.352;2023-01-29T06:17:11;95409.41;;;-1.46;89.22
41234;BME280;26968;42.686;23.352;2023-01-29T06:19:36;95390.13;;;-1.59;89.48
41234;BME280;26968;42.686;23.352;2023-01-29T06:22:02;95404.94;;;-1.52;89.93
41234;BME280;26968;42.686;23.352;2023-01-29T06:24:28;95388.63;;;-1.74;89.34
41234;BME280;26968;42.686;23.352;2023-01-29T06:26:53;95433.16;;;-1.56;89.97
41234;BME280;26968;42.686;23.352;2023-01-29T06:29:18;95365.50;;;-1.97;90.07
41234;BME280;26968;42.686;23.352;2023-01-29T06:31:44;95476.25;;;-1.40;90.10
41234;BME280;26968;42.686;23.352;2023-01-29T06:34:09;95467.84;;;-1.36;90.82
41234;BME280;26968;42.686;23.352;2023-01-29T06:36:35;95479.78;;;-1.13;90.21
41234;BME280;26968;42.686;23.352;2023-01-29T06:39:01;95416.91;;;-1.65;90.52
41234;BME280;26968;42.686;23.352;2023-01-29T06:41:26;95408.97;;;-1.50;90.29
41234;BME280;26968;42.686;23.352;2023-01-29T06:43:52;95482.16;;;-1.19;90.09
41234;BME280;26968;42.686;23.352;2023-01-29T06:46:18;95495.06;;;-0.97;90.21
41234;BME280;26968;42.686;23.352;2023-01-29T06:48:43;95448.63;;;-1.41;89.88
41234;BME280;26968;42.686;23.352;2023-01-29T06:51:10;95430.59;;;-1.43;90.04
41234;BME280;26968;42.686;23.352;2023-01-29T06:53:37;95521.94;;;-0.90;89.88
41234;BME280;26968;42.686;23.352;2023-01-29T06:56:03;95426.34;;;-1.57;89.93
41234;BME280;26968;42.686;23.352;2023-01-29T06:58:29;95473.97;;;-1.15;89.70
41234;BME280;26968;42.686;23.352;2023-01-29T07:01:05;95504.13;;;-0.93;89.60
41234;BME280;26968;42.686;23.352;2023-01-29T07:03:31;95511.38;;;-0.75;89.86
41234;BME280;26968;42.686;23.352;2023-01-29T07:05:56;95521.38;;;-0.86;89.84
41234;BME280;26968;42.686;23.352;2023-01-29T07:08:22;95507.31;;;-0.91;89.67
41234;BME280;26968;42.686;23.352;2023-01-29T07:10:48;95485.78;;;-1.13;89.26
41234;BME280;26968;42.686;23.352;2023-01-29T07:13:13;95405.69;;;-1.65;88.99
41234;BME280;26968;42.686;23.352;2023-01-29T07:15:39;95466.88;;;-1.35;89.25
41234;BME280;26968;42.686;23.352;2023-01-29T07:18:04;95536.38;;;-0.88;89.43
41234;BME280;26968;42.686;23.352;2023-01-29T07:20:36;95530.38;;;-0.82;89.13
41234;BME280;26968;42.686;23.352;2023-01-29T07:23:01;95420.50;;;-1.59;88.91
41234;BME280;26968;42.686;23.352;2023-01-29T07:25:27;95463.72;;;-1.24;88.89
41234;BME280;26968;42.686;23.352;2023-01-29T07:27:54;95537.03;;;-0.72;88.89
41234;BME280;26968;42.686;23.352;2023-01-29T07:30:20;95540.91;;;-0.62;88.60
41234;BME280;26968;42.686;23.352;2023-01-29T07:32:45;95470.50;;;-1.29;87.64
41234;BME280;26968;42.686;23.352;2023-01-29T07:35:11;95475.78;;;-1.16;88.16
41234;BME280;26968;42.686;23.352;2023-01-29T07:37:36;95438.59;;;-1.44;88.13
41234;BME280;26968;42.686;23.352;2023-01-29T07:40:02;95439.25;;;-1.36;88.19
41234;BME280;26968;42.686;23.352;2023-01-29T07:42:29;95511.94;;;-0.87;88.09
41234;BME280;26968;42.686;23.352;2023-01-29T07:44:55;95506.47;;;-0.98;87.38
41234;BME280;26968;42.686;23.352;2023-01-29T07:47:20;95430.25;;;-1.33;88.06
41234;BME280;26968;42.686;23.352;2023-01-29T07:49:45;95460.09;;;-1.29;87.15
41234;BME280;26968;42.686;23.352;2023-01-29T07:52:11;95465.66;;;-1.39;88.42
41234;BME280;26968;42.686;23.352;2023-01-29T07:54:36;95566.59;;;-0.93;88.44
41234;BME280;26968;42.686;23.352;2023-01-29T07:57:02;95550.56;;;-0.90;89.40
41234;BME280;26968;42.686;23.352;2023-01-29T07:59:27;95515.59;;;-1.22;89.52
41234;BME280;26968;42.686;23.352;2023-01-29T08:01:52;95557.59;;;-0.91;90.10
41234;BME280;26968;42.686;23.352;2023-01-29T08:04:18;95536.00;;;-0.85;90.12
41234;BME280;26968;42.686;23.352;2023-01-29T08:06:43;95560.44;;;-0.86;90.17
41234;BME280;26968;42.686;23.352;2023-01-29T08:09:09;95435.53;;;-1.61;89.96
41234;BME280;26968;42.686;23.352;2023-01-29T08:11:35;95540.56;;;-0.93;89.93
41234;BME280;26968;42.686;23.352;2023-01-29T08:14:00;95562.22;;;-0.86;89.45
41234;BME280;26968;42.686;23.352;2023-01-29T08:16:26;95415.63;;;-1.75;89.44
41234;BME280;26968;42.686;23.352;2023-01-29T08:18:51;95524.00;;;-1.20;89.01
41234;BME280;26968;42.686;23.352;2023-01-29T08:21:16;95450.19;;;-1.53;88.64
41234;BME280;26968;42.686;23.352;2023-01-29T08:23:42;95523.63;;;-1.17;88.02
41234;BME280;26968;42.686;23.352;2023-01-29T08:26:07;95565.84;;;-0.81;88.57
41234;BME280;26968;42.686;23.352;2023-01-29T08:28:33;95393.94;;;-1.89;87.60
41234;BME280;26968;42.686;23.352;2023-01-29T08:30:59;95568.28;;;-0.79;87.69
41234;BME280;26968;42.686;23.352;2023-01-29T08:33:25;95579.50;;;-0.79;86.55
41234;BME280;26968;42.686;23.352;2023-01-29T08:35:53;95577.69;;;-0.78;87.10
41234;BME280;26968;42.686;23.352;2023-01-29T08:38:19;95513.84;;;-1.08;86.91
41234;BME280;26968;42.686;23.352;2023-01-29T08:40:44;95568.09;;;-0.71;86.84
41234;BME280;26968;42.686;23.352;2023-01-29T08:43:11;95499.22;;;-1.16;85.84
41234;BME280;26968;42.686;23.352;2023-01-29T08:45:41;95580.78;;;-0.61;85.82
41234;BME280;26968;42.686;23.352;2023-01-29T08:48:07;95538.16;;;-0.95;86.02
41234;BME280;26968;42.686;23.352;2023-01-29T08:50:33;95591.97;;;-0.61;86.20
41234;BME280;26968;42.686;23.352;2023-01-29T08:53:03;95608.06;;;-0.51;85.79
41234;BME280;26968;42.686;23.352;2023-01-29T08:55:31;95599.56;;;-0.66;85.84
41234;BME280;26968;42.686;23.352;2023-01-29T08:57:57;95548.78;;;-0.90;86.31
41234;BME280;26968;42.686;23.352;2023-01-29T09:00:22;95553.94;;;-1.03;85.54
41234;BME280;26968;42.686;23.352;2023-01-29T09:02:48;95598.81;;;-0.53;86.23
41234;BME280;26968;42.686;23.352;2023-01-29T09:05:13;95608.91;;;-0.37;85.53
41234;BME280;26968;42.686;23.352;2023-01-29T09:07:39;95575.66;;;-0.83;84.54
41234;BME280;26968;42.686;23.352;2023-01-29T09:10:04;95583.38;;;-0.61;84.75
41234;BME280;26968;42.686;23.352;2023-01-29T09:12:30;95605.06;;;-0.54;84.68
41234;BME280;26968;42.686;23.352;2023-01-29T09:14:55;95601.03;;;-0.50;84.88
41234;BME280;26968;42.686;23.352;2023-01-29T09:17:20;95537.00;;;-0.86;84.48
41234;BME280;26968;42.686;23.352;2023-01-29T09:19:46;95555.09;;;-0.64;85.23
41234;BME280;26968;42.686;23.352;2023-01-29T09:22:11;95550.28;;;-0.67;84.69
41234;BME280;26968;42.686;23.352;2023-01-29T09:24:37;95576.00;;;-0.45;84.94
41234;BME280;26968;42.686;23.352;2023-01-29T09:27:02;95514.09;;;-0.97;83.71
41234;BME280;26968;42.686;23.352;2023-01-29T09:29:29;95539.13;;;-0.96;84.32
41234;BME280;26968;42.686;23.352;2023-01-29T09:31:54;95584.38;;;-0.62;84.04
41234;BME280;26968;42.686;23.352;2023-01-29T09:34:19;95528.06;;;-1.11;84.68
41234;BME280;26968;42.686;23.352;2023-01-29T09:36:45;95531.84;;;-1.13;84.43
41234;BME280;26968;42.686;23.352;2023-01-29T09:39:10;95516.03;;;-1.12;84.56
41234;BME280;26968;42.686;23.352;2023-01-29T09:47:15;95485.56;;;-1.18;83.76
41234;BME280;26968;42.686;23.352;2023-01-29T09:49:46;95495.31;;;-0.92;84.38
41234;BME280;26968;42.686;23.352;2023-01-29T09:57:21;95580.81;;;-0.48;83.95
41234;BME280;26968;42.686;23.352;2023-01-29T09:59:49;95581.78;;;-0.56;84.04
41234;BME280;26968;42.686;23.352;2023-01-29T10:05:08;95582.84;;;-0.44;84.07
41234;BME280;26968;42.686;23.352;2023-01-29T10:08:11;95580.81;;;-0.48;83.80
41234;BME280;26968;42.686;23.352;2023-01-29T10:10:49;95582.56;;;-0.62;84.17
41234;BME280;26968;42.686;23.352;2023-01-29T10:26:13;95511.16;;;-0.81;83.83
41234;BME280;26968;42.686;23.352;2023-01-29T10:28:44;95563.59;;;-0.43;84.11
41234;BME280;26968;42.686;23.352;2023-01-29T10:31:19;95483.09;;;-0.92;84.14
41234;BME280;26968;42.686;23.352;2023-01-29T10:33:51;95530.88;;;-0.58;84.17
41234;BME280;26968;42.686;23.352;2023-01-29T10:36:45;95555.16;;;-0.45;84.64
41234;BME280;26968;42.686;23.352;2023-01-29T10:39:19;95471.47;;;-0.89;84.42
41234;BME280;26968;42.686;23.352;2023-01-29T10:52:49;95557.75;;;-0.51;84.11
41234;BME280;26968;42.686;23.352;2023-01-29T11:00:44;95502.41;;;-0.60;84.55
41234;BME280;26968;42.686;23.352;2023-01-29T11:03:15;95507.44;;;-0.58;83.92
41234;BME280;26968;42.686;23.352;2023-01-29T11:05:50;95531.50;;;-0.50;84.29
41234;BME280;26968;42.686;23.352;2023-01-29T11:08:22;95535.53;;;-0.41;85.08
41234;BME280;26968;42.686;23.352;2023-01-29T11:13:31;95523.16;;;-0.25;84.55
41234;BME280;26968;42.686;23.352;2023-01-29T11:15:58;95539.81;;;-0.13;84.69
41234;BME280;26968;42.686;23.352;2023-01-29T11:18:24;95490.19;;;-0.59;83.81
41234;BME280;26968;42.686;23.352;2023-01-29T11:20:59;95440.66;;;-0.86;83.70
41234;BME280;26968;42.686;23.352;2023-01-29T11:23:28;95494.66;;;-0.40;84.22
41234;BME280;26968;42.686;23.352;2023-01-29T11:25:56;95520.56;;;-0.12;84.67
41234;BME280;26968;42.686;23.352;2023-01-29T11:28:42;95523.16;;;-0.19;84.01
41234;BME280;26968;42.686;23.352;2023-01-29T11:33:41;95426.59;;;-0.91;84.43
41234;BME280;26968;42.686;23.352;2023-01-29T11:36:21;95413.00;;;-0.80;84.05
41234;BME280;26968;42.686;23.352;2023-01-29T11:39:09;95444.47;;;-0.68;83.35
41234;BME280;26968;42.686;23.352;2023-01-29T11:42:03;95470.56;;;-0.55;84.23
41234;BME280;26968;42.686;23.352;2023-01-29T11:49:47;95490.81;;;-0.44;84.08
41234;BME280;26968;42.686;23.352;2023-01-29T11:52:14;95476.97;;;-0.51;84.72
41234;BME280;26968;42.686;23.352;2023-01-29T11:54:48;95432.88;;;-0.66;84.32
41234;BME280;26968;42.686;23.352;2023-01-29T11:57:28;95495.47;;;-0.33;84.17
41234;BME280;26968;42.686;23.352;2023-01-29T11:59:58;95446.94;;;-0.47;83.50
41234;BME280;26968;42.686;23.352;2023-01-29T12:05:22;95402.59;;;-0.73;83.57
41234;BME280;26968;42.686;23.352;2023-01-29T12:07:48;95466.19;;;-0.35;83.67
41234;BME280;26968;42.686;23.352;2023-01-29T12:10:35;95421.66;;;-0.53;83.72
41234;BME280;26968;42.686;23.352;2023-01-29T12:15:44;95489.28;;;-0.19;82.96
41234;BME280;26968;42.686;23.352;2023-01-29T12:18:29;95336.44;;;-1.05;83.42
41234;BME280;26968;42.686;23.352;2023-01-29T12:21:00;95443.53;;;-0.48;83.07
41234;BME280;26968;42.686;23.352;2023-01-29T12:23:46;95489.69;;;-0.09;84.08
41234;BME280;26968;42.686;23.352;2023-01-29T12:26:39;95442.94;;;-0.30;83.63
41234;BME280;26968;42.686;23.352;2023-01-29T12:34:48;95485.66;;;-0.18;83.48
41234;BME280;26968;42.686;23.352;2023-01-29T12:40:00;95361.34;;;-0.76;82.56
41234;BME280;26968;42.686;23.352;2023-01-29T12:42:26;95410.25;;;-0.52;81.76
41234;BME280;26968;42.686;23.352;2023-01-29T12:45:02;95481.88;;;-0.02;82.36
41234;BME280;26968;42.686;23.352;2023-01-29T12:47:48;95490.50;;;0.12;82.51
41234;BME280;26968;42.686;23.352;2023-01-29T12:50:22;95501.31;;;0.02;81.88
41234;BME280;26968;42.686;23.352;2023-01-29T12:53:01;95388.03;;;-0.55;82.32
41234;BME280;26968;42.686;23.352;2023-01-29T12:55:45;95414.28;;;-0.43;82.23
41234;BME280;26968;42.686;23.352;2023-01-29T12:58:21;95464.63;;;-0.03;82.32
41234;BME280;26968;42.686;23.352;2023-01-29T13:00:51;95473.25;;;-0.03;82.45
41234;BME280;26968;42.686;23.352;2023-01-29T13:03:23;95441.16;;;-0.16;82.14
41234;BME280;26968;42.686;23.352;2023-01-29T13:06:11;95464.00;;;0.08;80.77
41234;BME280;26968;42.686;23.352;2023-01-29T13:08:43;95486.69;;;0.14;81.63
41234;BME280;26968;42.686;23.352;2023-01-29T13:11:15;95324.06;;;-0.84;82.04
41234;BME280;26968;42.686;23.352;2023-01-29T13:14:18;95437.75;;;-0.17;81.15
41234;BME280;26968;42.686;23.352;2023-01-29T13:16:43;95470.63;;;0.04;81.56
41234;BME280;26968;42.686;23.352;2023-01-29T13:19:28;95437.13;;;-0.19;81.87
41234;BME280;26968;42.686;23.352;2023-01-29T13:21:59;95481.66;;;0.13;81.45
41234;BME280;26968;42.686;23.352;2023-01-29T13:24:32;95484.47;;;0.18;82.01
41234;BME280;26968;42.686;23.352;2023-01-29T13:26:59;95486.06;;;0.32;81.49
41234;BME280;26968;42.686;23.352;2023-01-29T13:29:27;95482.28;;;0.21;80.97
41234;BME280;26968;42.686;23.352;2023-01-29T13:32:01;95467.22;;;-0.03;80.50
41234;BME280;26968;42.686;23.352;2023-01-29T13:34:29;95431.50;;;-0.22;80.20
41234;BME280;26968;42.686;23.352;2023-01-29T13:37:32;95515.78;;;-0.02;79.88
41234;BME280;26968;42.686;23.352;2023-01-29T13:39:59;95382.56;;;-0.80;80.99
41234;BME280;26968;42.686;23.352;2023-01-29T13:42:41;95502.13;;;-0.04;81.55
41234;BME280;26968;42.686;23.352;2023-01-29T13:45:18;95439.72;;;-0.45;80.83
41234;BME280;26968;42.686;23.352;2023-01-29T13:47:44;95413.44;;;-0.70;81.09
41234;BME280;26968;42.686;23.352;2023-01-29T13:50:48;95513.97;;;-0.08;80.80
41234;BME280;26968;42.686;23.352;2023-01-29T13:53:26;95482.81;;;-0.43;80.95
41234;BME280;26968;42.686;23.352;2023-01-29T13:55:53;95509.31;;;-0.19;80.93
41234;BME280;26968;42.686;23.352;2023-01-29T14:00:56;95466.94;;;-0.61;80.87
41234;BME280;26968;42.686;23.352;2023-01-29T14:03:31;95522.34;;;-0.32;80.84
41234;BME280;26968;42.686;23.352;2023-01-29T14:05:59;95503.66;;;-0.36;80.66
41234;BME280;26968;42.686;23.352;2023-01-29T14:11:32;95547.75;;;-0.48;81.07
41234;BME280;26968;42.686;23.352;2023-01-29T14:13:58;95477.94;;;-0.72;81.49
41234;BME280;26968;42.686;23.352;2023-01-29T14:16:27;95441.63;;;-1.00;80.90
41234;BME280;26968;42.686;23.352;2023-01-29T14:19:02;95522.53;;;-0.41;81.55
41234;BME280;26968;42.686;23.352;2023-01-29T14:21:33;95502.41;;;-0.53;81.12
41234;BME280;26968;42.686;23.352;2023-01-29T14:24:42;95530.53;;;-0.35;80.97
41234;BME280;26968;42.686;23.352;2023-01-29T14:27:01;95478.75;;;-0.71;81.33
41234;BME280;26968;42.686;23.352;2023-01-29T14:29:28;95504.03;;;-0.52;80.32
41234;BME280;26968;42.686;23.352;2023-01-29T14:31:59;95536.19;;;-0.32;81.13
41234;BME280;26968;42.686;23.352;2023-01-29T14:34:34;95545.00;;;-0.26;80.70
41234;BME280;26968;42.686;23.352;2023-01-29T14:39:54;95510.47;;;-0.55;81.15
41234;BME280;26968;42.686;23.352;2023-01-29T14:53:08;95539.59;;;-0.31;81.96
41234;BME280;26968;42.686;23.352;2023-01-29T14:56:09;95517.69;;;-0.37;82.18
41234;BME280;26968;42.686;23.352;2023-01-29T14:58:49;95536.94;;;-0.38;82.03
41234;BME280;26968;42.686;23.352;2023-01-29T15:01:21;95546.19;;;-0.29;83.01
41234;BME280;26968;42.686;23.352;2023-01-29T15:03:52;95514.41;;;-0.65;82.28
41234;BME280;26968;42.686;23.352;2023-01-29T15:06:32;95531.63;;;-0.71;82.90
41234;BME280;26968;42.686;23.352;2023-01-29T15:11:51;95529.41;;;-0.81;83.94
41234;BME280;26968;42.686;23.352;2023-01-29T15:14:23;95548.31;;;-0.59;83.29
41234;BME280;26968;42.686;23.352;2023-01-29T15:19:45;95483.66;;;-0.96;83.65
41234;BME280;26968;42.686;23.352;2023-01-29T15:22:19;95545.69;;;-0.59;83.66
41234;BME280;26968;42.686;23.352;2023-01-29T15:24:47;95524.22;;;-0.67;84.06